sensor_id;sensor_type;location;lat;lon;timestamp;pressure;altitude;pressure_sealevel;temperature;humidity
80749;BME280;70145;53.746;9.970;2023-07-09T00:01:18;101769.19;;;17.94;43.30
80749;BME280;70145;53.746;9.970;2023-07-09T00:04:10;101775.06;;;17.89;43.45
80749;BME280;70145;53.746;9.970;2023-07-09T00:06:36;101769.06;;;17.86;43.54
80749;BME280;70145;53.746;9.970;2023-07-09T00:09:01;101763.94;;;17.83;43.55
80749;BME280;70145;53.746;9.970;2023-07-09T00:11:26;101774.09;;;17.81;43.61
80749;BME280;70145;53.746;9.970;2023-07-09T00:13:51;101783.59;;;17.77;43.58
80749;BME280;70145;53.746;9.970;2023-07-09T00:16:24;101782.19;;;17.73;43.64
80749;BME280;70145;53.746;9.970;2023-07-09T00:18:49;101780.59;;;17.70;43.71
80749;BME280;70145;53.746;9.970;2023-07-09T00:21:17;101775.47;;;17.67;43.90
80749;BME280;70145;53.746;9.970;2023-07-09T00:23:42;101773.03;;;17.64;44.12
80749;BME280;70145;53.746;9.970;2023-07-09T00:26:12;101771.47;;;17.62;44.06
80749;BME280;70145;53.746;9.970;2023-07-09T00:28:39;101771.78;;;17.59;44.26
80749;BME280;70145;53.746;9.970;2023-07-09T00:31:04;101773.09;;;17.55;44.17
80749;BME280;70145;53.746;9.970;2023-07-09T00:33:29;101780.69;;;17.51;44.03
80749;BME280;70145;53.746;9.970;2023-07-09T00:35:57;101780.84;;;17.50;44.24
80749;BME280;70145;53.746;9.970;2023-07-09T00:38:23;101778.44;;;17.47;43.99
80749;BME280;70145;53.746;9.970;2023-07-09T00:41:08;101778.75;;;17.44;44.38
80749;BME280;70145;53.746;9.970;2023-07-09T00:43:43;101778.03;;;17.42;43.82
80749;BME280;70145;53.746;9.970;2023-07-09T00:48:54;101771.47;;;17.35;44.12
80749;BME280;70145;53.746;9.970;2023-07-09T00:51:23;101765.59;;;17.30;44.28
80749;BME280;70145;53.746;9.970;2023-07-09T00:53:52;101771.34;;;17.27;44.38
80749;BME280;70145;53.746;9.970;2023-07-09T00:56:28;101775.38;;;17.23;44.26
80749;BME280;70145;53.746;9.970;2023-07-09T00:58:55;101774.63;;;17.21;44.65
80749;BME280;70145;53.746;9.970;2023-07-09T01:01:21;101766.75;;;17.18;44.61
80749;BME280;70145;53.746;9.970;2023-07-09T01:03:52;101761.63;;;17.15;44.64
80749;BME280;70145;53.746;9.970;2023-07-09T01:06:27;101767.34;;;17.12;44.45
80749;BME280;70145;53.746;9.970;2023-07-09T01:08:55;101769.34;;;17.10;44.47
80749;BME280;70145;53.746;9.970;2023-07-09T01:11:21;101782.28;;;17.08;44.53
80749;BME280;70145;53.746;9.970;2023-07-09T01:13:52;101771.66;;;17.05;44.34
80749;BME280;70145;53.746;9.970;2023-07-09T01:16:21;101770.22;;;17.01;44.88
80749;BME280;70145;53.746;9.970;2023-07-09T01:18:49;101772.25;;;16.99;44.47
80749;BME280;70145;53.746;9.970;2023-07-09T01:21:14;101767.09;;;16.96;44.46
80749;BME280;70145;53.746;9.970;2023-07-09T01:23:47;101763.66;;;16.94;44.91
80749;BME280;70145;53.746;9.970;2023-07-09T01:26:16;101759.38;;;16.91;44.97
80749;BME280;70145;53.746;9.970;2023-07-09T01:28:42;101747.91;;;16.88;45.04
80749;BME280;70145;53.746;9.970;2023-07-09T01:31:09;101758.09;;;16.86;44.95
80749;BME280;70145;53.746;9.970;2023-07-09T01:33:35;101760.38;;;16.81;44.79
80749;BME280;70145;53.746;9.970;2023-07-09T01:36:01;101755.09;;;16.79;44.86
80749;BME280;70145;53.746;9.970;2023-07-09T01:38:27;101763.41;;;16.78;44.70
80749;BME280;70145;53.746;9.970;2023-07-09T01:40:59;101747.38;;;16.75;44.53
80749;BME280;70145;53.746;9.970;2023-07-09T01:43:25;101751.38;;;16.71;44.89
80749;BME280;70145;53.746;9.970;2023-07-09T01:45:50;101761.56;;;16.69;44.70
80749;BME280;70145;53.746;9.970;2023-07-09T01:48:17;101754.41;;;16.68;45.06
80749;BME280;70145;53.746;9.970;2023-07-09T01:50:46;101756.41;;;16.66;44.67
80749;BME280;70145;53.746;9.970;2023-07-09T01:53:15;101755.56;;;16.65;44.66
80749;BME280;70145;53.746;9.970;2023-07-09T01:55:41;101758.41;;;16.64;44.58
80749;BME280;70145;53.746;9.970;2023-07-09T01:58:07;101761.28;;;16.62;44.55
80749;BME280;70145;53.746;9.970;2023-07-09T02:00:34;101769.72;;;16.59;44.35
80749;BME280;70145;53.746;9.970;2023-07-09T02:03:03;101755.41;;;16.57;44.28
80749;BME280;70145;53.746;9.970;2023-07-09T02:05:31;101757.41;;;16.55;44.81
80749;BME280;70145;53.746;9.970;2023-07-09T02:07:56;101753.13;;;16.53;44.41
80749;BME280;70145;53.746;9.970;2023-07-09T02:10:22;101756.84;;;16.52;44.58
80749;BME280;70145;53.746;9.970;2023-07-09T02:12:48;101758.84;;;16.50;44.39
80749;BME280;70145;53.746;9.970;2023-07-09T02:15:14;101755.38;;;16.48;44.37
80749;BME280;70145;53.746;9.970;2023-07-09T02:17:39;101760.97;;;16.46;44.51
80749;BME280;70145;53.746;9.970;2023-07-09T02:20:06;101755.66;;;16.45;44.31
80749;BME280;70145;53.746;9.970;2023-07-09T02:22:33;101761.25;;;16.43;44.17
80749;BME280;70145;53.746;9.970;2023-07-09T02:24:58;101758.66;;;16.42;44.48
80749;BME280;70145;53.746;9.970;2023-07-09T02:27:23;101752.53;;;16.40;44.41
80749;BME280;70145;53.746;9.970;2023-07-09T02:29:49;101761.66;;;16.38;44.45
80749;BME280;70145;53.746;9.970;2023-07-09T02:32:26;101752.09;;;16.34;44.41
80749;BME280;70145;53.746;9.970;2023-07-09T02:34:52;101750.25;;;16.35;44.37
80749;BME280;70145;53.746;9.970;2023-07-09T02:37:24;101758.69;;;16.32;44.42
80749;BME280;70145;53.746;9.970;2023-07-09T02:39:49;101751.66;;;16.29;44.46
80749;BME280;70145;53.746;9.970;2023-07-09T02:42:18;101748.22;;;16.27;44.50
80749;BME280;70145;53.746;9.970;2023-07-09T02:44:44;101755.66;;;16.25;44.34
80749;BME280;70145;53.746;9.970;2023-07-09T02:47:10;101753.22;;;16.22;44.40
80749;BME280;70145;53.746;9.970;2023-07-09T02:49:36;101759.66;;;16.21;44.40
80749;BME280;70145;53.746;9.970;2023-07-09T02:52:02;101757.09;;;16.20;44.05
80749;BME280;70145;53.746;9.970;2023-07-09T02:54:27;101754.66;;;16.17;44.39
80749;BME280;70145;53.746;9.970;2023-07-09T02:56:53;101758.53;;;16.14;44.29
80749;BME280;70145;53.746;9.970;2023-07-09T02:59:18;101760.50;;;16.12;44.36
80749;BME280;70145;53.746;9.970;2023-07-09T03:01:45;101761.66;;;16.10;44.38
80749;BME280;70145;53.746;9.970;2023-07-09T03:04:10;101765.53;;;16.07;44.27
80749;BME280;70145;53.746;9.970;2023-07-09T03:06:36;101764.94;;;16.04;44.59
80749;BME280;70145;53.746;9.970;2023-07-09T03:09:03;101761.66;;;16.00;44.64
80749;BME280;70145;53.746;9.970;2023-07-09T03:11:30;101760.94;;;15.98;44.57
80749;BME280;70145;53.746;9.970;2023-07-09T03:13:57;101759.34;;;15.96;44.47
80749;BME280;70145;53.746;9.970;2023-07-09T03:16:22;101766.03;;;15.92;44.70
80749;BME280;70145;53.746;9.970;2023-07-09T03:18:47;101761.63;;;15.91;44.44
80749;BME280;70145;53.746;9.970;2023-07-09T03:21:13;101761.91;;;15.88;44.53
80749;BME280;70145;53.746;9.970;2023-07-09T03:23:38;101757.75;;;15.84;44.69
80749;BME280;70145;53.746;9.970;2023-07-09T03:26:04;101765.16;;;15.82;44.50
80749;BME280;70145;53.746;9.970;2023-07-09T03:28:31;101769.91;;;15.80;44.51
80749;BME280;70145;53.746;9.970;2023-07-09T03:30:56;101763.59;;;15.79;44.87
80749;BME280;70145;53.746;9.970;2023-07-09T03:33:23;101771.00;;;15.77;44.50
80749;BME280;70145;53.746;9.970;2023-07-09T03:35:48;101758.56;;;15.75;44.68
80749;BME280;70145;53.746;9.970;2023-07-09T03:38:15;101764.16;;;15.73;44.66
80749;BME280;70145;53.746;9.970;2023-07-09T03:40:40;101765.25;;;15.71;44.63
80749;BME280;70145;53.746;9.970;2023-07-09T03:43:06;101769.13;;;15.68;44.61
80749;BME280;70145;53.746;9.970;2023-07-09T03:45:32;101773.81;;;15.66;44.44
80749;BME280;70145;53.746;9.970;2023-07-09T03:47:58;101771.22;;;15.65;44.38
80749;BME280;70145;53.746;9.970;2023-07-09T03:50:24;101773.09;;;15.64;44.72
80749;BME280;70145;53.746;9.970;2023-07-09T03:52:49;101771.38;;;15.63;44.66
80749;BME280;70145;53.746;9.970;2023-07-09T03:55:14;101777.81;;;15.62;44.66
80749;BME280;70145;53.746;9.970;2023-07-09T03:57:40;101780.53;;;15.62;44.56
80749;BME280;70145;53.746;9.970;2023-07-09T04:00:06;101780.53;;;15.62;44.56
80749;BME280;70145;53.746;9.970;2023-07-09T04:02:35;101780.53;;;15.62;44.98
80749;BME280;70145;53.746;9.970;2023-07-09T04:05:01;101776.94;;;15.62;44.75
80749;BME280;70145;53.746;9.970;2023-07-09T04:07:26;101778.94;;;15.60;44.94
80749;BME280;70145;53.746;9.970;2023-07-09T04:09:51;101782.66;;;15.59;44.99
80749;BME280;70145;53.746;9.970;2023-07-09T04:12:17;101782.91;;;15.56;45.03
80749;BME280;70145;53.746;9.970;2023-07-09T04:14:42;101782.06;;;15.55;45.01
80749;BME280;70145;53.746;9.970;2023-07-09T04:17:07;101778.50;;;15.55;44.87
80749;BME280;70145;53.746;9.970;2023-07-09T04:19:32;101775.91;;;15.53;45.34
80749;BME280;70145;53.746;9.970;2023-07-09T04:21:58;101774.19;;;15.52;45.11
80749;BME280;70145;53.746;9.970;2023-07-09T04:24:23;101764.31;;;15.51;45.32
80749;BME280;70145;53.746;9.970;2023-07-09T04:26:48;101770.75;;;15.50;45.47
80749;BME280;70145;53.746;9.970;2023-07-09T04:29:14;101773.47;;;15.50;45.35
80749;BME280;70145;53.746;9.970;2023-07-09T04:31:40;101770.88;;;15.49;45.69
80749;BME280;70145;53.746;9.970;2023-07-09T04:34:06;101777.47;;;15.46;45.54
80749;BME280;70145;53.746;9.970;2023-07-09T04:36:32;101772.03;;;15.46;45.38
80749;BME280;70145;53.746;9.970;2023-07-09T04:38:57;101774.88;;;15.45;45.76
80749;BME280;70145;53.746;9.970;2023-07-09T04:41:23;101781.31;;;15.44;45.87
80749;BME280;70145;53.746;9.970;2023-07-09T04:43:48;101783.03;;;15.45;45.83
80749;BME280;70145;53.746;9.970;2023-07-09T04:46:14;101776.72;;;15.44;45.92
80749;BME280;70145;53.746;9.970;2023-07-09T04:48:39;101771.28;;;15.44;45.86
80749;BME280;70145;53.746;9.970;2023-07-09T04:51:04;101776.03;;;15.42;45.87
80749;BME280;70145;53.746;9.970;2023-07-09T04:53:30;101794.00;;;15.43;46.08
80749;BME280;70145;53.746;9.970;2023-07-09T04:55:55;101789.59;;;15.42;46.14
80749;BME280;70145;53.746;9.970;2023-07-09T04:58:20;101795.03;;;15.42;46.35
80749;BME280;70145;53.746;9.970;2023-07-09T05:00:46;101788.72;;;15.42;46.01
80749;BME280;70145;53.746;9.970;2023-07-09T05:03:11;101786.88;;;15.42;46.00
80749;BME280;70145;53.746;9.970;2023-07-09T05:05:43;101783.16;;;15.43;46.29
80749;BME280;70145;53.746;9.970;2023-07-09T05:08:09;101784.16;;;15.42;46.29
80749;BME280;70145;53.746;9.970;2023-07-09T05:10:40;101784.16;;;15.42;46.24
80749;BME280;70145;53.746;9.970;2023-07-09T05:13:06;101782.16;;;15.44;46.26
80749;BME280;70145;53.746;9.970;2023-07-09T05:15:31;101778.31;;;15.47;46.50
80749;BME280;70145;53.746;9.970;2023-07-09T05:17:56;101782.63;;;15.49;46.53
80749;BME280;70145;53.746;9.970;2023-07-09T05:20:21;101779.63;;;15.52;46.73
80749;BME280;70145;53.746;9.970;2023-07-09T05:22:47;101775.91;;;15.53;46.61
80749;BME280;70145;53.746;9.970;2023-07-09T05:25:12;101774.63;;;15.57;46.88
80749;BME280;70145;53.746;9.970;2023-07-09T05:27:37;101770.06;;;15.58;46.79
80749;BME280;70145;53.746;9.970;2023-07-09T05:30:03;101777.81;;;15.62;46.73
80749;BME280;70145;53.746;9.970;2023-07-09T05:32:29;101786.38;;;15.67;46.78
80749;BME280;70145;53.746;9.970;2023-07-09T05:34:54;101790.56;;;15.71;46.97
80749;BME280;70145;53.746;9.970;2023-07-09T05:37:20;101793.75;;;15.76;46.88
80749;BME280;70145;53.746;9.970;2023-07-09T05:39:45;101798.63;;;15.82;46.89
80749;BME280;70145;53.746;9.970;2023-07-09T05:42:10;101794.50;;;15.88;46.88
80749;BME280;70145;53.746;9.970;2023-07-09T05:44:36;101795.66;;;15.95;46.88
80749;BME280;70145;53.746;9.970;2023-07-09T05:47:01;101790.69;;;16.00;46.80
80749;BME280;70145;53.746;9.970;2023-07-09T05:49:26;101784.69;;;16.06;47.08
80749;BME280;70145;53.746;9.970;2023-07-09T05:51:51;101788.56;;;16.13;46.78
80749;BME280;70145;53.746;9.970;2023-07-09T05:54:17;101786.13;;;16.19;46.69
80749;BME280;70145;53.746;9.970;2023-07-09T05:56:43;101779.16;;;16.26;46.58
80749;BME280;70145;53.746;9.970;2023-07-09T05:59:09;101770.09;;;16.35;46.38
80749;BME280;70145;53.746;9.970;2023-07-09T06:01:35;101768.53;;;16.42;46.58
80749;BME280;70145;53.746;9.970;2023-07-09T06:04:00;101770.56;;;16.50;46.36
80749;BME280;70145;53.746;9.970;2023-07-09T06:06:25;101768.84;;;16.59;46.69
80749;BME280;70145;53.746;9.970;2023-07-09T06:08:51;101774.44;;;16.67;46.33
80749;BME280;70145;53.746;9.970;2023-07-09T06:11:18;101775.28;;;16.77;46.38
80749;BME280;70145;53.746;9.970;2023-07-09T06:13:43;101777.44;;;16.83;46.30
80749;BME280;70145;53.746;9.970;2023-07-09T06:16:08;101778.28;;;16.93;46.28
80749;BME280;70145;53.746;9.970;2023-07-09T06:18:34;101766.53;;;17.02;46.14
80749;BME280;70145;53.746;9.970;2023-07-09T06:21:00;101767.66;;;17.09;46.41
80749;BME280;70145;53.746;9.970;2023-07-09T06:23:26;101770.47;;;17.17;46.06
80749;BME280;70145;53.746;9.970;2023-07-09T06:25:52;101766.19;;;17.24;45.86
80749;BME280;70145;53.746;9.970;2023-07-09T06:28:19;101770.75;;;17.33;46.15
80749;BME280;70145;53.746;9.970;2023-07-09T06:30:45;101767.28;;;17.40;45.79
80749;BME280;70145;53.746;9.970;2023-07-09T06:33:12;101774.56;;;17.49;45.55
80749;BME280;70145;53.746;9.970;2023-07-09T06:35:38;101771.78;;;17.59;45.77
80749;BME280;70145;53.746;9.970;2023-07-09T06:38:05;101770.88;;;17.68;45.78
80749;BME280;70145;53.746;9.970;2023-07-09T06:40:30;101777.13;;;17.78;45.50
80749;BME280;70145;53.746;9.970;2023-07-09T06:42:56;101770.22;;;17.83;45.43
80749;BME280;70145;53.746;9.970;2023-07-09T06:45:23;101775.63;;;17.93;45.43
80749;BME280;70145;53.746;9.970;2023-07-09T06:47:48;101781.34;;;17.99;45.27
80749;BME280;70145;53.746;9.970;2023-07-09T06:50:14;101780.59;;;18.07;44.94
80749;BME280;70145;53.746;9.970;2023-07-09T06:52:40;101782.09;;;18.19;45.10
80749;BME280;70145;53.746;9.970;2023-07-09T06:55:06;101782.88;;;18.29;45.25
80749;BME280;70145;53.746;9.970;2023-07-09T06:57:31;101785.66;;;18.37;44.91
80749;BME280;70145;53.746;9.970;2023-07-09T06:59:57;101779.28;;;18.46;44.96
80749;BME280;70145;53.746;9.970;2023-07-09T07:02:22;101787.25;;;18.57;45.01
80749;BME280;70145;53.746;9.970;2023-07-09T07:04:47;101783.44;;;18.68;44.74
80749;BME280;70145;53.746;9.970;2023-07-09T07:07:13;101788.81;;;18.77;44.70
80749;BME280;70145;53.746;9.970;2023-07-09T07:09:38;101782.38;;;18.86;44.66
80749;BME280;70145;53.746;9.970;2023-07-09T07:12:03;101783.19;;;18.96;44.51
80749;BME280;70145;53.746;9.970;2023-07-09T07:14:29;101777.44;;;19.07;44.55
80749;BME280;70145;53.746;9.970;2023-07-09T07:16:56;101785.50;;;19.17;44.49
80749;BME280;70145;53.746;9.970;2023-07-09T07:19:22;101770.06;;;19.25;44.46
80749;BME280;70145;53.746;9.970;2023-07-09T07:21:47;101781.44;;;19.38;44.29
80749;BME280;70145;53.746;9.970;2023-07-09T07:24:12;101776.16;;;19.45;44.38
80749;BME280;70145;53.746;9.970;2023-07-09T07:26:37;101776.75;;;19.56;44.28
80749;BME280;70145;53.746;9.970;2023-07-09T07:29:03;101776.63;;;19.66;43.78
80749;BME280;70145;53.746;9.970;2023-07-09T07:31:28;101776.50;;;19.75;44.00
80749;BME280;70145;53.746;9.970;2023-07-09T07:33:53;101779.94;;;19.85;43.87
80749;BME280;70145;53.746;9.970;2023-07-09T07:36:18;101775.94;;;19.97;43.79
80749;BME280;70145;53.746;9.970;2023-07-09T07:38:44;101785.50;;;20.09;43.54
80749;BME280;70145;53.746;9.970;2023-07-09T07:41:09;101776.31;;;20.18;43.38
80749;BME280;70145;53.746;9.970;2023-07-09T07:43:34;101781.50;;;20.29;43.70
80749;BME280;70145;53.746;9.970;2023-07-09T07:45:59;101783.03;;;20.40;43.46
80749;BME280;70145;53.746;9.970;2023-07-09T07:48:25;101782.19;;;20.47;42.25
80749;BME280;70145;53.746;9.970;2023-07-09T07:50:50;101781.00;;;20.58;42.75
80749;BME280;70145;53.746;9.970;2023-07-09T07:53:15;101775.22;;;20.69;42.22
80749;BME280;70145;53.746;9.970;2023-07-09T07:55:41;101773.16;;;20.79;42.38
80749;BME280;70145;53.746;9.970;2023-07-09T07:58:12;101770.59;;;20.86;41.57
80749;BME280;70145;53.746;9.970;2023-07-09T08:00:39;101774.53;;;20.99;42.41
80749;BME280;70145;53.746;9.970;2023-07-09T08:03:05;101774.69;;;21.06;41.98
80749;BME280;70145;53.746;9.970;2023-07-09T08:05:30;101763.53;;;21.15;41.51
80749;BME280;70145;53.746;9.970;2023-07-09T08:07:55;101765.41;;;21.23;41.76
80749;BME280;70145;53.746;9.970;2023-07-09T08:10:21;101765.44;;;21.31;41.35
80749;BME280;70145;53.746;9.970;2023-07-09T08:12:47;101769.16;;;21.38;41.14
80749;BME280;70145;53.746;9.970;2023-07-09T08:15:12;101766.56;;;21.44;41.10
80749;BME280;70145;53.746;9.970;2023-07-09T08:17:38;101768.25;;;21.53;41.20
80749;BME280;70145;53.746;9.970;2023-07-09T08:20:04;101763.41;;;21.63;40.93
80749;BME280;70145;53.746;9.970;2023-07-09T08:22:29;101759.78;;;21.71;41.14
80749;BME280;70145;53.746;9.970;2023-07-09T08:24:55;101758.72;;;21.80;40.83
80749;BME280;70145;53.746;9.970;2023-07-09T08:27:20;101761.47;;;21.88;40.87
80749;BME280;70145;53.746;9.970;2023-07-09T08:29:46;101757.00;;;21.95;40.30
80749;BME280;70145;53.746;9.970;2023-07-09T08:32:11;101757.97;;;22.02;40.72
80749;BME280;70145;53.746;9.970;2023-07-09T08:34:38;101760.47;;;22.11;40.36
80749;BME280;70145;53.746;9.970;2023-07-09T08:37:06;101765.06;;;22.19;40.09
80749;BME280;70145;53.746;9.970;2023-07-09T08:39:32;101760.56;;;22.26;39.91
80749;BME280;70145;53.746;9.970;2023-07-09T08:42:07;101747.81;;;22.33;39.73
80749;BME280;70145;53.746;9.970;2023-07-09T08:44:44;101754.44;;;22.46;39.93
80749;BME280;70145;53.746;9.970;2023-07-09T08:50:04;101744.38;;;22.62;39.47
80749;BME280;70145;53.746;9.970;2023-07-09T08:52:33;101749.78;;;22.70;39.11
80749;BME280;70145;53.746;9.970;2023-07-09T08:55:04;101751.91;;;22.82;39.21
80749;BME280;70145;53.746;9.970;2023-07-09T08:57:34;101757.97;;;22.92;39.12
80749;BME280;70145;53.746;9.970;2023-07-09T09:02:50;101741.84;;;23.12;39.24
80749;BME280;70145;53.746;9.970;2023-07-09T09:05:20;101747.94;;;23.22;37.95
80749;BME280;70145;53.746;9.970;2023-07-09T09:07:51;101747.88;;;23.30;38.37
80749;BME280;70145;53.746;9.970;2023-07-09T09:10:29;101746.50;;;23.40;38.12
80749;BME280;70145;53.746;9.970;2023-07-09T09:13:15;101749.81;;;23.50;38.39
80749;BME280;70145;53.746;9.970;2023-07-09T09:15:46;101753.84;;;23.62;38.30
80749;BME280;70145;53.746;9.970;2023-07-09T09:18:35;101743.13;;;23.67;38.19
80749;BME280;70145;53.746;9.970;2023-07-09T09:21:13;101744.63;;;23.84;38.33
80749;BME280;70145;53.746;9.970;2023-07-09T09:23:47;101738.81;;;23.94;37.38
80749;BME280;70145;53.746;9.970;2023-07-09T09:26:33;101746.56;;;24.05;37.67
80749;BME280;70145;53.746;9.970;2023-07-09T09:29:00;101741.06;;;24.19;37.97
80749;BME280;70145;53.746;9.970;2023-07-09T09:31:29;101740.72;;;24.29;38.02
80749;BME280;70145;53.746;9.970;2023-07-09T09:33:55;101739.34;;;24.39;37.87
80749;BME280;70145;53.746;9.970;2023-07-09T09:36:23;101731.44;;;24.51;37.38
80749;BME280;70145;53.746;9.970;2023-07-09T09:38:49;101731.94;;;24.61;37.25
80749;BME280;70145;53.746;9.970;2023-07-09T09:41:21;101730.56;;;24.72;36.51
80749;BME280;70145;53.746;9.970;2023-07-09T09:43:48;101731.09;;;24.82;37.18
80749;BME280;70145;53.746;9.970;2023-07-09T09:46:20;101735.22;;;24.92;36.93
80749;BME280;70145;53.746;9.970;2023-07-09T09:48:48;101736.56;;;25.03;36.82
80749;BME280;70145;53.746;9.970;2023-07-09T09:51:15;101724.31;;;25.12;36.23
80749;BME280;70145;53.746;9.970;2023-07-09T09:53:46;101726.09;;;25.19;35.83
80749;BME280;70145;53.746;9.970;2023-07-09T09:58:53;101736.56;;;25.30;35.15
80749;BME280;70145;53.746;9.970;2023-07-09T10:01:27;101727.94;;;25.40;35.54
80749;BME280;70145;53.746;9.970;2023-07-09T10:03:56;101723.53;;;25.52;35.50
80749;BME280;70145;53.746;9.970;2023-07-09T10:06:28;101719.34;;;25.62;35.25
80749;BME280;70145;53.746;9.970;2023-07-09T10:11:55;101715.00;;;25.81;35.07
80749;BME280;70145;53.746;9.970;2023-07-09T10:17:29;101717.63;;;26.02;35.61
80749;BME280;70145;53.746;9.970;2023-07-09T10:20:24;101712.78;;;26.10;34.45
80749;BME280;70145;53.746;9.970;2023-07-09T10:25:40;101720.28;;;26.36;35.10
80749;BME280;70145;53.746;9.970;2023-07-09T10:28:33;101710.31;;;26.48;35.01
80749;BME280;70145;53.746;9.970;2023-07-09T10:31:10;101719.03;;;26.58;34.89
80749;BME280;70145;53.746;9.970;2023-07-09T10:34:02;101713.72;;;26.70;34.71
80749;BME280;70145;53.746;9.970;2023-07-09T10:37:04;101715.00;;;26.80;33.51
80749;BME280;70145;53.746;9.970;2023-07-09T10:39:40;101711.41;;;26.93;33.12
80749;BME280;70145;53.746;9.970;2023-07-09T10:42:16;101716.31;;;27.04;33.78
80749;BME280;70145;53.746;9.970;2023-07-09T10:44:49;101712.00;;;27.14;33.37
80749;BME280;70145;53.746;9.970;2023-07-09T10:47:27;101706.28;;;27.22;33.32
80749;BME280;70145;53.746;9.970;2023-07-09T10:49:55;101714.97;;;27.32;32.93
80749;BME280;70145;53.746;9.970;2023-07-09T10:52:25;101709.00;;;27.42;33.28
80749;BME280;70145;53.746;9.970;2023-07-09T10:54:59;101710.91;;;27.54;33.43
80749;BME280;70145;53.746;9.970;2023-07-09T11:00:01;101706.53;;;27.78;33.03
80749;BME280;70145;53.746;9.970;2023-07-09T11:02:28;101695.03;;;27.87;32.85
80749;BME280;70145;53.746;9.970;2023-07-09T11:04:57;101689.66;;;27.92;31.85
80749;BME280;70145;53.746;9.970;2023-07-09T11:10:32;101691.25;;;28.13;32.01
80749;BME280;70145;53.746;9.970;2023-07-09T11:13:12;101689.28;;;28.20;32.08
80749;BME280;70145;53.746;9.970;2023-07-09T11:15:42;101692.19;;;28.31;32.07
80749;BME280;70145;53.746;9.970;2023-07-09T11:18:13;101701.34;;;28.38;32.05
80749;BME280;70145;53.746;9.970;2023-07-09T11:20:44;101692.31;;;28.49;32.28
80749;BME280;70145;53.746;9.970;2023-07-09T11:23:24;101694.31;;;28.60;31.80
80749;BME280;70145;53.746;9.970;2023-07-09T11:26:09;101681.28;;;28.68;30.72
80749;BME280;70145;53.746;9.970;2023-07-09T11:28:38;101686.94;;;28.79;31.30
80749;BME280;70145;53.746;9.970;2023-07-09T11:31:18;101683.25;;;28.85;30.29
80749;BME280;70145;53.746;9.970;2023-07-09T11:33:47;101677.03;;;28.90;30.05
80749;BME280;70145;53.746;9.970;2023-07-09T11:36:22;101674.00;;;28.98;29.81
80749;BME280;70145;53.746;9.970;2023-07-09T11:38:48;101670.31;;;29.04;30.03
80749;BME280;70145;53.746;9.970;2023-07-09T11:41:39;101668.91;;;29.13;30.00
80749;BME280;70145;53.746;9.970;2023-07-09T11:44:18;101668.38;;;29.22;29.94
80749;BME280;70145;53.746;9.970;2023-07-09T11:47:23;101670.25;;;29.28;28.64
80749;BME280;70145;53.746;9.970;2023-07-09T11:50:02;101660.31;;;29.39;29.15
80749;BME280;70145;53.746;9.970;2023-07-09T11:52:39;101658.91;;;29.48;28.86
80749;BME280;70145;53.746;9.970;2023-07-09T11:55:27;101661.00;;;29.52;27.85
80749;BME280;70145;53.746;9.970;2023-07-09T11:57:57;101660.00;;;29.65;28.11
80749;BME280;70145;53.746;9.970;2023-07-09T12:00:25;101664.38;;;29.72;28.24
80749;BME280;70145;53.746;9.970;2023-07-09T12:02:53;101658.53;;;29.80;28.56
80749;BME280;70145;53.746;9.970;2023-07-09T12:05:22;101657.38;;;29.88;27.99
80749;BME280;70145;53.746;9.970;2023-07-09T12:07:51;101659.16;;;29.94;28.17
80749;BME280;70145;53.746;9.970;2023-07-09T12:10:23;101654.16;;;30.02;28.74
80749;BME280;70145;53.746;9.970;2023-07-09T12:12:54;101661.75;;;30.07;27.43
80749;BME280;70145;53.746;9.970;2023-07-09T12:15:23;101658.66;;;30.15;27.28
80749;BME280;70145;53.746;9.970;2023-07-09T12:17:57;101659.41;;;30.22;27.45
80749;BME280;70145;53.746;9.970;2023-07-09T12:20:22;101651.81;;;30.29;27.62
80749;BME280;70145;53.746;9.970;2023-07-09T12:22:48;101649.78;;;30.36;27.13
80749;BME280;70145;53.746;9.970;2023-07-09T12:25:29;101651.97;;;30.34;26.19
80749;BME280;70145;53.746;9.970;2023-07-09T12:27:55;101650.25;;;30.33;27.10
80749;BME280;70145;53.746;9.970;2023-07-09T12:30:22;101631.09;;;30.43;27.10
80749;BME280;70145;53.746;9.970;2023-07-09T12:32:49;101631.59;;;30.51;26.94
80749;BME280;70145;53.746;9.970;2023-07-09T12:35:17;101640.88;;;30.57;27.15
80749;BME280;70145;53.746;9.970;2023-07-09T12:37:44;101635.19;;;30.63;26.54
80749;BME280;70145;53.746;9.970;2023-07-09T12:40:14;101629.53;;;30.70;26.91
80749;BME280;70145;53.746;9.970;2023-07-09T12:42:42;101623.53;;;30.73;26.34
80749;BME280;70145;53.746;9.970;2023-07-09T12:45:18;101619.66;;;30.74;26.03
80749;BME280;70145;53.746;9.970;2023-07-09T12:47:45;101618.06;;;30.78;25.98
80749;BME280;70145;53.746;9.970;2023-07-09T12:50:31;101620.38;;;30.81;26.32
80749;BME280;70145;53.746;9.970;2023-07-09T12:53:01;101613.59;;;30.77;26.67
80749;BME280;70145;53.746;9.970;2023-07-09T12:55:28;101614.81;;;30.81;26.69
80749;BME280;70145;53.746;9.970;2023-07-09T12:57:58;101610.47;;;30.85;26.77
80749;BME280;70145;53.746;9.970;2023-07-09T13:00:30;101618.91;;;30.90;26.18
80749;BME280;70145;53.746;9.970;2023-07-09T13:02:57;101615.19;;;30.85;25.46
80749;BME280;70145;53.746;9.970;2023-07-09T13:05:24;101612.50;;;30.90;26.03
80749;BME280;70145;53.746;9.970;2023-07-09T13:07:57;101621.44;;;30.92;26.18
80749;BME280;70145;53.746;9.970;2023-07-09T13:10:26;101617.81;;;30.91;25.67
80749;BME280;70145;53.746;9.970;2023-07-09T13:12:56;101621.81;;;30.95;25.89
80749;BME280;70145;53.746;9.970;2023-07-09T13:17:47;101613.56;;;31.00;26.34
80749;BME280;70145;53.746;9.970;2023-07-09T13:20:12;101616.97;;;31.02;26.07
80749;BME280;70145;53.746;9.970;2023-07-09T13:22:45;101610.44;;;31.08;26.30
80749;BME280;70145;53.746;9.970;2023-07-09T13:25:10;101608.13;;;31.17;26.56